Latest Weather Observations for Swan Island

IDT60801

Issued at 2:05 pm EST Monday 22 September 2014 (issued every 30 minutes, with the page automatically refreshed every 10 minutes)

About weather observations | Map of weather stations | Latest weather observations for TAS | Other Formats
Station Details ID: 092123 Name: SWAN ISLAND Lat: -40.73 Lon: 148.12 Height: 15.0 m
Data from the previous 72 hours. | See also: Recent months at Swan Island
Date/Time
EST
Temp
°C
App
Temp
°C
Dew
Point
Rel
Hum
%
Delta-T
°C
Wind Press
QNH
hPa
Press
MSL
hPa
Rain
since 9 am
mm
Dir
 
Spd
km/h
Gust
km/h
Spd
kts
Gust
kts
22/02:00pm 14.7 - - - - WNW 20 30 11 16 1027.2 1027.2 0.0
22/01:30pm 15.1 - - - - WNW 22 30 12 16 1027.5 1027.5 0.0
22/01:00pm 15.1 - - - - WNW 20 30 11 16 1027.6 1027.6 0.0
22/12:30pm 14.9 - - - - WNW 20 28 11 15 1027.8 1027.8 0.0
22/12:00pm 14.8 - - - - WNW 22 30 12 16 1028.1 1028.1 0.0
22/11:30am 15.1 - - - - WNW 20 30 11 16 1028.4 1028.4 0.0
22/11:00am 15.3 - - - - WNW 20 30 11 16 1028.7 1028.7 0.0
22/10:30am 14.7 - - - - WNW 22 28 12 15 1028.9 1028.9 0.0
22/10:00am 14.6 - - - - WNW 20 28 11 15 1029.1 1029.1 0.0
22/09:30am 14.1 - - - - WNW 20 28 11 15 1029.2 1029.2 0.0
22/09:00am 13.8 - - - - WNW 22 30 12 16 1029.3 1029.3 0.6
22/08:30am 13.2 - - - - WNW 24 32 13 17 1029.3 1029.3 0.6
22/08:00am 12.8 - - - - WNW 20 26 11 14 1029.2 1029.2 0.6
22/07:30am 12.6 - - - - WNW 20 30 11 16 1029.2 1029.2 0.6
22/07:00am 12.0 - - - - WNW 19 26 10 14 1028.9 1028.9 0.6
22/06:30am 11.8 - - - - WNW 19 26 10 14 1028.8 1028.8 0.4
22/06:00am 11.7 - - - - NW 20 26 11 14 1028.6 1028.6 0.4
22/05:30am 11.7 - - - - NW 22 26 12 14 1028.3 1028.3 0.4
22/05:00am 11.7 - - - - NW 17 22 9 12 1028.0 1028.0 0.4
22/04:30am 11.8 - - - - NW 20 24 11 13 1027.8 1027.8 0.4
22/04:00am 11.8 - - - - NW 19 22 10 12 1027.6 1027.6 0.4
22/03:30am 11.7 - - - - NW 15 19 8 10 1027.4 1027.4 0.4
22/03:00am 11.4 - - - - WNW 11 13 6 7 1027.6 1027.6 0.4
22/02:30am 11.2 - - - - WNW 9 11 5 6 1027.6 1027.6 0.2
22/02:00am 11.2 - - - - WNW 9 11 5 6 1027.8 1027.8 0.2
22/01:30am 11.0 - - - - W 7 9 4 5 1027.8 1027.8 0.2
22/01:00am 11.5 - - - - WNW 11 13 6 7 1028.1 1028.1 0.2
22/12:30am 11.5 - - - - WNW 9 13 5 7 1028.2 1028.2 0.2
22/12:00am 11.6 - - - - W 11 15 6 8 1028.2 1028.2 0.2
 
Date/Time
EST
Temp
°C
App
Temp
°C
Dew
Point
Rel
Hum
%
Delta-T
°C
Wind Press
QNH
hPa
Press
MSL
hPa
Rain
since 9 am
mm
Dir
 
Spd
km/h
Gust
km/h
Spd
kts
Gust
kts
21/11:30pm 11.8 - - - - WNW 11 15 6 8 1028.2 1028.2 0.0
21/11:00pm 11.9 - - - - WNW 13 17 7 9 1028.3 1028.3 0.0
21/10:30pm 12.0 - - - - WNW 15 19 8 10 1028.3 1028.3 0.0
21/10:00pm 12.1 - - - - WNW 15 19 8 10 1028.4 1028.4 0.0
21/09:30pm 12.2 - - - - WNW 17 19 9 10 1028.5 1028.5 0.0
21/09:00pm 12.2 - - - - NW 17 20 9 11 1028.5 1028.5 0.0
21/08:30pm 12.3 - - - - NW 15 22 8 12 1028.4 1028.4 0.0
21/08:00pm 12.3 - - - - NW 15 20 8 11 1028.3 1028.3 0.0
21/07:30pm 12.4 - - - - NW 17 22 9 12 1028.1 1028.1 0.0
21/07:00pm 12.4 - - - - NW 15 20 8 11 1027.9 1027.9 0.0
21/06:30pm 12.4 - - - - NW 15 20 8 11 1027.6 1027.6 0.0
21/06:00pm 12.6 - - - - NW 15 20 8 11 1027.4 1027.4 0.0
21/05:30pm 13.1 - - - - NW 13 19 7 10 1027.6 1027.6 0.0
21/05:00pm 13.5 - - - - NW 15 20 8 11 1027.2 1027.2 0.0
21/04:30pm 13.7 - - - - NW 17 22 9 12 1027.2 1027.2 0.0
21/04:00pm 14.0 - - - - WNW 17 26 9 14 1027.0 1027.0 0.0
21/03:30pm 14.6 - - - - WNW 20 28 11 15 1026.9 1026.9 0.0
21/03:00pm 14.5 - - - - WNW 20 28 11 15 1027.0 1027.0 0.0
21/02:30pm 15.2 - - - - WNW 19 28 10 15 1027.1 1027.1 0.0
21/02:00pm 15.0 - - - - WNW 20 30 11 16 1026.9 1026.9 0.0
21/01:30pm 15.6 - - - - WNW 19 28 10 15 1027.1 1027.1 0.0
21/01:00pm 15.2 - - - - WNW 20 30 11 16 1027.2 1027.2 0.0
21/12:30pm 14.9 - - - - WNW 19 26 10 14 1027.1 1027.1 0.0
21/12:00pm 14.7 - - - - WNW 19 26 10 14 1027.3 1027.3 0.0
21/11:30am 14.1 - - - - WNW 19 24 10 13 1027.7 1027.7 0.0
21/11:00am 14.0 - - - - WNW 15 22 8 12 1027.8 1027.8 0.0
21/10:30am 12.8 - - - - NW 15 20 8 11 1027.8 1027.8 0.0
21/10:00am 13.5 - - - - NW 15 20 8 11 1027.8 1027.8 0.0
21/09:30am 12.3 - - - - WNW 13 17 7 9 1028.0 1028.0 0.0
21/09:00am 12.9 - - - - WNW 11 17 6 9 1027.9 1027.9 0.0
21/08:30am 12.1 - - - - NW 11 15 6 8 1027.6 1027.6 0.0
21/08:00am 11.8 - - - - NW 11 13 6 7 1027.7 1027.7 0.0
21/07:30am 11.9 - - - - N 4 7 2 4 1027.5 1027.5 0.0
21/07:00am 10.6 - - - - CALM 0 0 0 0 1027.2 1027.2 0.0
21/06:30am 9.1 - - - - SE 4 6 2 3 1026.8 1026.8 0.0
21/06:00am 8.3 - - - - S 7 9 4 5 1026.7 1026.7 0.0
21/05:30am 8.6 - - - - S 7 9 4 5 1026.6 1026.6 0.0
21/05:00am 7.4 - - - - W 9 11 5 6 1026.2 1026.2 0.0
21/04:30am 8.2 - - - - W 7 7 4 4 1025.8 1025.8 0.0
21/04:00am 8.1 - - - - W 7 9 4 5 1025.7 1025.7 0.0
21/03:30am 8.6 - - - - WNW 6 7 3 4 1025.4 1025.4 0.0
21/03:00am 8.7 - - - - WNW 6 7 3 4 1025.5 1025.5 0.0
21/02:30am 8.8 - - - - SW 9 11 5 6 1025.9 1025.9 0.0
21/02:00am 9.1 - - - - SSW 9 11 5 6 1026.0 1026.0 0.0
21/01:30am 9.2 - - - - S 9 9 5 5 1025.8 1025.8 0.0
21/01:00am 9.7 - - - - SSE 9 11 5 6 1025.8 1025.8 0.0
21/12:30am 9.7 - - - - S 9 11 5 6 1025.8 1025.8 0.0
21/12:00am 10.0 - - - - SSW 7 9 4 5 1025.5 1025.5 0.0
 
Date/Time
EST
Temp
°C
App
Temp
°C
Dew
Point
Rel
Hum
%
Delta-T
°C
Wind Press
QNH
hPa
Press
MSL
hPa
Rain
since 9 am
mm
Dir
 
Spd
km/h
Gust
km/h
Spd
kts
Gust
kts
20/11:30pm 10.4 - - - - S 4 7 2 4 1025.6 1025.6 0.0
20/11:00pm 10.7 - - - - SE 13 17 7 9 1025.4 1025.4 0.0
20/10:30pm 11.0 - - - - S 15 19 8 10 1025.5 1025.5 0.0
20/10:00pm 11.1 - - - - ESE 7 9 4 5 1024.9 1024.9 0.0
20/09:30pm 11.7 - - - - E 7 9 4 5 1024.8 1024.8 0.0
20/09:00pm 11.5 - - - - SE 13 17 7 9 1025.0 1025.0 0.0
20/08:30pm 11.3 - - - - SE 13 17 7 9 1025.1 1025.1 0.0
20/08:00pm 11.5 - - - - S 2 4 1 2 1024.9 1024.9 0.0
20/07:30pm 12.2 - - - - WNW 6 7 3 4 1024.8 1024.8 0.0
20/07:00pm 12.3 - - - - WNW 13 17 7 9 1024.4 1024.4 0.0
20/06:30pm 12.5 - - - - WNW 17 24 9 13 1024.1 1024.1 0.0
20/06:00pm 12.7 - - - - WNW 17 22 9 12 1024.0 1024.0 0.0
20/05:30pm 13.1 - - - - WNW 20 28 11 15 1023.5 1023.5 0.0
20/05:00pm 13.6 - - - - WNW 22 30 12 16 1023.3 1023.3 0.0
20/04:30pm 14.0 - - - - WNW 19 26 10 14 1023.0 1023.0 0.0
20/04:00pm 14.4 - - - - WNW 24 33 13 18 1023.2 1023.2 0.0
20/03:30pm 14.3 - - - - NW 22 30 12 16 1023.0 1023.0 0.0
20/03:00pm 14.7 - - - - WNW 20 28 11 15 1023.1 1023.1 0.0
20/02:30pm 15.1 - - - - NW 20 26 11 14 1023.0 1023.0 0.0
20/02:00pm 15.3 - - - - NW 20 28 11 15 1023.0 1023.0 0.0
20/01:30pm 16.0 - - - - NW 20 28 11 15 1023.0 1023.0 0.0
20/01:00pm 15.4 - - - - NW 17 24 9 13 1023.1 1023.1 0.0
20/12:30pm 15.9 - - - - NW 17 22 9 12 1023.3 1023.3 0.0
20/12:00pm 15.6 - - - - NW 17 22 9 12 1023.5 1023.5 0.0
20/11:30am 14.5 - - - - NW 15 19 8 10 1023.5 1023.5 0.0
20/11:00am 15.2 - - - - NW 15 19 8 10 1023.7 1023.7 0.0
20/10:30am 14.9 - - - - N 11 13 6 7 1023.9 1023.9 0.0
20/10:00am 14.1 - - - - N 7 9 4 5 1023.9 1023.9 0.0
20/09:30am 13.7 - - - - E 6 7 3 4 1024.1 1024.1 0.0
20/09:00am 12.5 - - - - SE 7 11 4 6 1024.0 1024.0 0.0
20/08:30am 12.9 - - - - SSW 9 13 5 7 1023.7 1023.7 0.0
20/08:00am 12.1 - - - - S 9 13 5 7 1023.4 1023.4 0.0
20/07:30am 11.6 - - - - WSW 11 17 6 9 1023.0 1023.0 0.0
20/07:00am 10.8 - - - - WSW 13 20 7 11 1022.4 1022.4 0.0
20/06:30am 10.1 - - - - W 15 22 8 12 1021.8 1021.8 0.0
20/06:00am 9.9 - - - - W 15 24 8 13 1021.6 1021.6 0.0
20/05:30am 9.7 - - - - W 15 20 8 11 1021.4 1021.4 0.0
20/05:00am 9.0 - - - - W 11 15 6 8 1021.1 1021.1 0.0
20/04:30am 9.3 - - - - WSW 13 19 7 10 1020.9 1020.9 0.0
20/04:00am 9.5 - - - - WSW 13 19 7 10 1020.5 1020.5 0.0
20/03:30am 9.3 - - - - WSW 9 15 5 8 1020.3 1020.3 0.0
20/03:00am 9.4 - - - - WSW 11 15 6 8 1020.1 1020.1 0.0
20/02:30am 9.2 - - - - W 11 13 6 7 1019.9 1019.9 0.0
20/02:00am 9.3 - - - - WSW 9 15 5 8 1019.8 1019.8 0.0
20/01:30am 10.2 - - - - W 13 19 7 10 1019.9 1019.9 0.0
20/01:00am 10.2 - - - - W 13 17 7 9 1019.9 1019.9 0.0
20/12:30am 10.3 - - - - W 13 20 7 11 1019.6 1019.6 0.0
20/12:00am 11.0 - - - - W 13 19 7 10 1019.4 1019.4 0.0
 
Date/Time
EST
Temp
°C
App
Temp
°C
Dew
Point
Rel
Hum
%
Delta-T
°C
Wind Press
QNH
hPa
Press
MSL
hPa
Rain
since 9 am
mm
Dir
 
Spd
km/h
Gust
km/h
Spd
kts
Gust
kts
19/11:30pm 11.5 - - - - W 17 22 9 12 1019.2 1019.2 0.0
19/11:00pm 11.7 - - - - W 22 30 12 16 1019.0 1019.0 0.0
19/10:30pm 11.7 - - - - W 22 30 12 16 1018.8 1018.8 0.0
19/10:00pm 11.6 - - - - W 19 33 10 18 1018.9 1018.9 0.0
19/09:30pm 11.8 - - - - W 20 30 11 16 1018.7 1018.7 0.0
19/09:00pm 12.0 - - - - W 22 32 12 17 1018.5 1018.5 0.0
19/08:30pm 12.2 - - - - W 24 30 13 16 1018.5 1018.5 0.0
19/08:00pm 12.2 - - - - W 28 41 15 22 1018.3 1018.3 0.0
19/07:30pm 12.3 - - - - W 32 41 17 22 1017.9 1017.9 0.0
19/07:00pm 12.3 - - - - W 30 39 16 21 1017.5 1017.5 0.0
19/06:30pm 12.4 - - - - W 32 41 17 22 1017.2 1017.2 0.0
19/06:00pm 12.4 - - - - W 32 41 17 22 1017.0 1017.0 0.0
19/05:30pm 12.5 - - - - W 24 35 13 19 1016.9 1016.9 0.0
19/05:00pm 12.6 - - - - W 26 41 14 22 1016.8 1016.8 0.0
19/04:30pm 12.8 - - - - W 32 44 17 24 1016.3 1016.3 0.0
19/04:00pm 12.9 - - - - W 30 39 16 21 1016.1 1016.1 0.0
19/03:30pm 12.8 - - - - W 24 37 13 20 1016.0 1016.0 0.0
19/03:00pm 12.6 - - - - W 32 43 17 23 1015.9 1015.9 0.0
19/02:30pm 12.7 - - - - W 30 43 16 23 1016.0 1016.0 0.0

Other Formats:

Comma delimited format used in spreadsheet applications
http://www.bom.gov.au/fwo/IDT60801/IDT60801.95985.axf

JavaScript Object Notation format (JSON) in row-major order
http://www.bom.gov.au/fwo/IDT60801/IDT60801.95985.json